Informes METAR cercanos


LEVC - Manises, Valencia, ESPAÑA
Distance from station: NNE 72km
Actualización: 16/01/2019 00:30
Parcialmente nuboso
Parcialmente nuboso
 Viento del O
Viento: O 7 km/h
Temperatura: 5°C
Sensacion frio: 3°C
Rocío: 4°C
Humedad: 93%
Barómetro: 1021 hPa
Clouds: Parcialmente nuboso
Visibility: 8 km
2019/01/15 23:30 LEVC 152330Z 27004KT 8000 NSC 05/04 Q1021 NOSIG
LEAL - El Altet, Alicante, ESPAÑA
Distance from station: S 70km
Actualización: 16/01/2019 00:30
Muy nuboso
Muy nuboso
 Viento del O
Viento: O 4 km/h
Temperatura: 12°C
Rocío: 8°C
Humedad: 77%
Barómetro: 1021 hPa
Clouds: Muy nuboso
Visibility: 10 km
Cloud details: Muy nuboso 762 m
2019/01/15 23:30 LEAL 152330Z 27002KT 9999 BKN025 12/08 Q1021 NOSIG
 
LELC - San Javier, Murcia, ESPAÑA
Distance from station: SSO 188km
Actualización: 16/01/2019 00:30
Muy nuboso
Muy nuboso
 Viento del calm
Viento: Calma
Temperatura: 9°C
Rocío: 8°C
Humedad: 94%
Barómetro: 1021 hPa
Clouds: Muy nuboso
Visibility: 9 km
Cloud details: Muy nuboso 792 m
2019/01/15 23:30 LELC 152330Z AUTO 00000KT 9000 BKN026/// 09/08 Q1021
LEAB - Los Llanos, Albacete, ESPAÑA
Distance from station: O 143km
Actualización: 16/01/2019 00:00
Despejado
Despejado
 Viento del SSE
Viento: SSE 9 km/h
Temperatura: 3°C
Sensacion frio: 0°C
Rocío: 2°C
Humedad: 93%
Barómetro: 1021 hPa
Resumen: Despejado
Visibility: Mas de 10 km
2019/01/15 23:00 LEAB 152300Z 15005KT CAVOK 03/02 Q1021 NOSIG